Terminal Aerodrome Forecast
Issued by NWS Grand Forks, ND

Home | Current Version | Previous Version | Text Only | Print | Product List | Glossary Off
Versions: 1 2 3 4 5 6 7 8 9 10 11 12 13 14 15 16

000
FTUS43 KFGF 280100 AAA
TAFGFK
TAF AMD
KGFK 280129Z 2801/2824 16010KT 5SM -SN OVC030
      TEMPO 2801/2805 1SM -SN BR OVC009
     FM280500 15012KT 1SM -SN OVC009
     FM281300 10007KT P6SM OVC015=

USA.gov is the U.S. government's official web portal to all federal, state and local government web resources and services.